createdAt,value
2017-12-13T00:00:33.237Z,87.93
2017-12-13T00:01:42.060Z,88.59
2017-12-13T00:02:50.882Z,88.78
2017-12-13T00:03:59.705Z,88.49
2017-12-13T00:05:08.804Z,88.59
2017-12-13T00:06:17.899Z,88.97
2017-12-13T00:07:26.819Z,90.11
2017-12-13T00:08:35.643Z,90.58
2017-12-13T00:09:44.468Z,90.11
2017-12-13T00:10:53.289Z,90.3
2017-12-13T00:12:02.115Z,90.39
2017-12-13T00:13:10.992Z,90.86
2017-12-13T00:14:19.814Z,90.86
2017-12-13T00:15:28.637Z,91.24
2017-12-13T00:16:37.459Z,90.67
2017-12-13T00:17:46.282Z,90.48
2017-12-13T00:18:55.204Z,90.58
2017-12-13T00:20:04.028Z,91.72
2017-12-13T00:21:12.849Z,91.81
2017-12-13T00:22:21.671Z,92.38
2017-12-13T00:23:30.493Z,92.76
2017-12-13T00:24:39.742Z,92.85
2017-12-13T00:25:48.571Z,92.76
2017-12-13T00:26:57.391Z,93.51
2017-12-13T00:28:06.217Z,92.85
2017-12-13T00:29:15.037Z,93.8
2017-12-13T00:30:23.860Z,92.19
2017-12-13T00:31:32.684Z,93.42
2017-12-13T00:32:41.507Z,92.66
2017-12-13T00:33:50.330Z,93.89
2017-12-13T00:34:59.153Z,93.7
2017-12-13T00:36:07.975Z,92.76
2017-12-13T00:37:16.797Z,94.27
2017-12-13T00:38:25.620Z,94.56
2017-12-13T00:39:34.443Z,94.74
2017-12-13T00:40:43.268Z,94.93
2017-12-13T00:41:52.088Z,94.56
2017-12-13T00:43:00.913Z,94.74
2017-12-13T00:44:09.736Z,95.21
2017-12-13T00:45:18.558Z,94.84
2017-12-13T00:46:27.382Z,93.99
2017-12-13T00:47:36.508Z,95.31
2017-12-13T00:48:45.326Z,94.08
2017-12-13T00:49:54.149Z,95.88
2017-12-13T00:51:02.978Z,95.21
2017-12-13T00:52:11.800Z,95.59
2017-12-13T00:53:20.721Z,96.45
2017-12-13T00:54:29.544Z,96.64
2017-12-13T00:55:38.367Z,96.54
2017-12-13T00:56:47.190Z,96.45
2017-12-13T00:57:56.012Z,96.83
2017-12-13T00:59:04.984Z,96.26
2017-12-13T01:00:13.807Z,96.83
2017-12-13T01:01:22.629Z,96.54
2017-12-13T01:02:31.749Z,96.83
2017-12-13T01:03:40.575Z,96.35
2017-12-13T01:04:49.822Z,96.64
2017-12-13T01:05:58.644Z,96.54
2017-12-13T01:07:07.464Z,96.35
2017-12-13T01:08:16.286Z,96.54
2017-12-13T01:09:25.112Z,96.26
2017-12-13T01:10:33.938Z,96.45
2017-12-13T01:11:43.033Z,96.16
2017-12-13T01:12:51.855Z,96.54
2017-12-13T01:14:00.952Z,96.26
2017-12-13T01:15:10.050Z,96.4
2017-12-13T01:16:18.922Z,96.31
2017-12-13T01:17:27.743Z,96.5
2017-12-13T01:18:36.565Z,96.12
2017-12-13T01:19:45.666Z,96.21
2017-12-13T01:20:54.535Z,95.93
2017-12-13T01:22:03.657Z,96.02
2017-12-13T01:23:12.481Z,96.12
2017-12-13T01:24:21.303Z,95.55
2017-12-13T01:25:30.125Z,96.21
2017-12-13T01:26:38.945Z,96.12
2017-12-13T01:27:47.965Z,95.74
2017-12-13T01:28:56.788Z,95.55
2017-12-13T01:30:05.610Z,95.17
2017-12-13T01:31:14.432Z,95.64
2017-12-13T01:32:23.528Z,95.64
2017-12-13T01:33:32.450Z,94.89
2017-12-13T01:34:41.272Z,95.07
2017-12-13T01:35:50.096Z,95.36
2017-12-13T01:36:58.915Z,95.36
2017-12-13T01:38:07.737Z,94.98
2017-12-13T01:39:16.611Z,95.26
2017-12-13T01:40:25.434Z,95.36
2017-12-13T01:41:34.261Z,95.26
2017-12-13T01:42:43.357Z,95.07
2017-12-13T01:43:52.182Z,94.89
2017-12-13T01:45:01.156Z,95.17
2017-12-13T01:46:09.978Z,95.36
2017-12-13T01:47:18.805Z,95.45
2017-12-13T01:48:27.624Z,94.51
2017-12-13T01:49:36.447Z,94.7
2017-12-13T01:50:45.272Z,95.26
2017-12-13T01:51:54.091Z,94.89
2017-12-13T01:53:03.186Z,94.7
2017-12-13T01:54:12.006Z,94.6
2017-12-13T01:55:20.827Z,94.51
2017-12-13T01:56:30.032Z,94.98
2017-12-13T01:57:39.156Z,94.7
2017-12-13T01:58:47.977Z,94.51
2017-12-13T01:59:56.802Z,94.7
2017-12-13T02:01:05.628Z,94.42
2017-12-13T02:02:14.497Z,94.89
2017-12-13T02:03:23.322Z,94.6
2017-12-13T02:04:32.144Z,94.79
2017-12-13T02:05:40.969Z,93.56
2017-12-13T02:06:49.790Z,94.6
2017-12-13T02:07:58.762Z,93.94
2017-12-13T02:09:07.584Z,93.66
2017-12-13T02:10:16.410Z,93.94
2017-12-13T02:11:25.233Z,93.66
2017-12-13T02:12:34.057Z,93.47
2017-12-13T02:13:43.032Z,93.85
2017-12-13T02:14:52.136Z,93.94
2017-12-13T02:16:00.962Z,93.56
2017-12-13T02:17:09.785Z,93.66
2017-12-13T02:18:18.891Z,93.56
2017-12-13T02:19:27.913Z,93.85
2017-12-13T02:20:36.734Z,93.37
2017-12-13T02:21:45.557Z,93.28
2017-12-13T02:22:54.379Z,94.04
2017-12-13T02:24:03.202Z,93.47
2017-12-13T02:25:12.073Z,93.18
2017-12-13T02:26:20.894Z,93.56
2017-12-13T02:27:29.716Z,93.09
2017-12-13T02:28:38.535Z,92.99
2017-12-13T02:29:47.358Z,93.37
2017-12-13T02:30:56.380Z,93.28
2017-12-13T02:32:05.204Z,93.18
2017-12-13T02:33:14.027Z,92.61
2017-12-13T02:34:22.850Z,93.28
2017-12-13T02:35:31.671Z,93.56
2017-12-13T02:36:40.742Z,93.37
2017-12-13T02:37:49.569Z,92.71
2017-12-13T02:38:58.384Z,93.56
2017-12-13T02:40:07.205Z,92.71
2017-12-13T02:41:16.031Z,92.71
2017-12-13T02:42:25.154Z,92.9
2017-12-13T02:43:34.536Z,92.61
2017-12-13T02:44:43.360Z,92.61
2017-12-13T02:45:52.184Z,92.9
2017-12-13T02:47:01.010Z,92.9
2017-12-13T02:48:09.935Z,92.61
2017-12-13T02:49:18.760Z,92.8
2017-12-13T02:50:27.582Z,92.52
2017-12-13T02:51:36.403Z,92.61
2017-12-13T02:52:45.505Z,92.61
2017-12-13T02:53:54.479Z,92.71
2017-12-13T02:55:03.303Z,92.61
2017-12-13T02:56:12.401Z,92.8
2017-12-13T02:57:21.496Z,92.61
2017-12-13T02:58:30.379Z,92.71
2017-12-13T02:59:39.241Z,92.8
2017-12-13T03:00:48.061Z,92.05
2017-12-13T03:01:56.883Z,92.33
2017-12-13T03:03:05.706Z,92.33
2017-12-13T03:04:14.811Z,92.14
2017-12-13T03:05:23.730Z,91.86
2017-12-13T03:06:32.552Z,92.24
2017-12-13T03:07:41.374Z,92.24
2017-12-13T03:08:50.197Z,92.14
2017-12-13T03:09:59.117Z,91.77
2017-12-13T03:11:08.091Z,92.05
2017-12-13T03:12:16.914Z,91.96
2017-12-13T03:13:25.737Z,91.48
2017-12-13T03:14:34.563Z,91.77
2017-12-13T03:15:43.384Z,91.77
2017-12-13T03:16:52.483Z,91.58
2017-12-13T03:18:01.306Z,91.1
2017-12-13T03:19:10.129Z,91.48
2017-12-13T03:20:18.950Z,91.01
2017-12-13T03:21:27.776Z,91.48
2017-12-13T03:22:36.797Z,91.39
2017-12-13T03:23:45.620Z,91.48
2017-12-13T03:24:54.439Z,91.29
2017-12-13T03:26:03.262Z,91.2
2017-12-13T03:27:12.083Z,91.29
2017-12-13T03:28:20.908Z,91.29
2017-12-13T03:29:29.730Z,91.39
2017-12-13T03:30:38.562Z,91.2
2017-12-13T03:31:47.690Z,91.29
2017-12-13T03:32:56.513Z,91.29
2017-12-13T03:34:05.387Z,91.1
2017-12-13T03:35:14.213Z,91.01
2017-12-13T03:36:23.030Z,91.1
2017-12-13T03:37:32.130Z,90.91
2017-12-13T03:38:40.950Z,91.01
2017-12-13T03:39:49.823Z,90.91
2017-12-13T03:40:58.646Z,91.29
2017-12-13T03:42:07.469Z,91.1
2017-12-13T03:43:16.291Z,90.91
2017-12-13T03:44:25.114Z,90.82
2017-12-13T03:45:34.140Z,91.1
2017-12-13T03:46:43.235Z,91.1
2017-12-13T03:47:52.059Z,91.2
2017-12-13T03:49:01.216Z,91.01
2017-12-13T03:50:10.037Z,91.1
2017-12-13T03:51:19.260Z,90.91
2017-12-13T03:52:28.082Z,90.72
2017-12-13T03:53:36.902Z,91.1
2017-12-13T03:54:45.726Z,90.63
2017-12-13T03:55:54.549Z,90.44
2017-12-13T03:57:03.521Z,90.44
2017-12-13T03:58:12.344Z,90.91
2017-12-13T03:59:21.166Z,91.1
2017-12-13T04:00:30.008Z,90.91
2017-12-13T04:01:38.810Z,90.63
2017-12-13T04:02:47.780Z,89.97
2017-12-13T04:03:56.599Z,90.34
2017-12-13T04:05:05.422Z,90.72
2017-12-13T04:06:14.245Z,90.91
2017-12-13T04:07:23.066Z,90.63
2017-12-13T04:08:32.038Z,90.82
2017-12-13T04:09:40.863Z,90.53
2017-12-13T04:10:49.961Z,90.82
2017-12-13T04:11:58.784Z,90.53
2017-12-13T04:13:07.605Z,90.34
2017-12-13T04:14:16.627Z,90.44
2017-12-13T04:15:25.447Z,90.91
2017-12-13T04:16:34.269Z,90.16
2017-12-13T04:17:43.090Z,91.01
2017-12-13T04:18:51.912Z,90.63
2017-12-13T04:20:00.834Z,90.91
2017-12-13T04:21:09.655Z,90.44
2017-12-13T04:22:18.475Z,90.91
2017-12-13T04:23:27.304Z,90.53
2017-12-13T04:24:36.121Z,91.01
2017-12-13T04:25:45.096Z,91.2
2017-12-13T04:26:53.920Z,90.72
2017-12-13T04:28:02.744Z,90.72
2017-12-13T04:29:11.567Z,91.01
2017-12-13T04:30:20.667Z,91.2
2017-12-13T04:31:29.593Z,90.82
2017-12-13T04:32:38.416Z,91.01
2017-12-13T04:33:47.239Z,90.91
2017-12-13T04:34:56.062Z,91.48
2017-12-13T04:36:04.885Z,91.29
2017-12-13T04:37:13.756Z,91.2
2017-12-13T04:38:22.579Z,91.29
2017-12-13T04:39:31.402Z,91.2
2017-12-13T04:40:40.224Z,91.58
2017-12-13T04:41:49.048Z,91.48
2017-12-13T04:42:58.170Z,91.48
2017-12-13T04:44:06.993Z,91.77
2017-12-13T04:45:15.814Z,91.67
2017-12-13T04:46:24.637Z,91.86
2017-12-13T04:47:33.459Z,91.48
2017-12-13T04:48:42.581Z,92.33
2017-12-13T04:49:51.406Z,91.86
2017-12-13T04:51:00.229Z,92.43
2017-12-13T04:52:09.054Z,92.05
2017-12-13T04:53:17.870Z,91.67
2017-12-13T04:54:26.793Z,92.05
2017-12-13T04:55:35.614Z,92.24
2017-12-13T04:56:44.440Z,91.58
2017-12-13T04:57:53.262Z,92.33
2017-12-13T04:59:02.086Z,92.24
2017-12-13T05:00:11.309Z,92.05
2017-12-13T05:01:20.130Z,92.33
2017-12-13T05:02:28.957Z,92.33
2017-12-13T05:03:37.779Z,91.77
2017-12-13T05:04:46.874Z,91.96
2017-12-13T05:05:56.151Z,91.48
2017-12-13T05:07:04.974Z,92.38
2017-12-13T05:08:13.798Z,92.05
2017-12-13T05:09:22.620Z,92.8
2017-12-13T05:10:31.722Z,92.61
2017-12-13T05:11:40.846Z,92.43
2017-12-13T05:12:49.669Z,92.8
2017-12-13T05:13:58.494Z,92.71
2017-12-13T05:15:07.315Z,92.33
2017-12-13T05:16:16.138Z,92.71
2017-12-13T05:17:25.109Z,92.8
2017-12-13T05:18:33.933Z,92.71
2017-12-13T05:19:42.756Z,92.71
2017-12-13T05:20:51.578Z,92.33
2017-12-13T05:22:00.406Z,92.71
2017-12-13T05:23:09.226Z,93.37
2017-12-13T05:24:18.048Z,92.9
2017-12-13T05:25:26.872Z,93.18
2017-12-13T05:26:35.696Z,93.56
2017-12-13T05:27:44.518Z,93.94
2017-12-13T05:28:53.488Z,93.66
2017-12-13T05:30:02.310Z,93.66
2017-12-13T05:31:11.416Z,93.56
2017-12-13T05:32:20.242Z,93.85
2017-12-13T05:33:29.070Z,93.75
2017-12-13T05:34:37.891Z,94.32
2017-12-13T05:35:46.715Z,94.23
2017-12-13T05:36:55.536Z,94.42
2017-12-13T05:38:04.360Z,94.7
2017-12-13T05:39:13.233Z,95.26
2017-12-13T05:40:22.056Z,95.36
2017-12-13T05:41:30.879Z,95.59
2017-12-13T05:42:39.701Z,96.16
2017-12-13T05:43:48.571Z,95.4
2017-12-13T05:44:57.486Z,95.45
2017-12-13T05:46:06.358Z,95.55
2017-12-13T05:47:15.225Z,97.16
2017-12-13T05:48:24.047Z,96.12
2017-12-13T05:49:32.877Z,95.97
2017-12-13T05:50:41.694Z,96.54
2017-12-13T05:51:50.516Z,96.64
2017-12-13T05:52:59.338Z,97.87
2017-12-13T05:54:08.159Z,98.01
2017-12-13T05:55:16.980Z,98.15
2017-12-13T05:56:25.803Z,97.2
2017-12-13T05:57:34.627Z,98.15
2017-12-13T05:58:43.450Z,99.29
2017-12-13T05:59:52.373Z,98.72
2017-12-13T06:01:01.469Z,99.57
2017-12-13T06:02:10.310Z,99.29
2017-12-13T06:03:19.113Z,99.66
2017-12-13T06:04:27.936Z,99.57
2017-12-13T06:05:37.260Z,99.99
2017-12-13T06:06:46.367Z,99.99
2017-12-13T06:07:55.190Z,99.99
2017-12-13T06:09:04.014Z,99.99
2017-12-13T06:10:12.844Z,99.99
2017-12-13T06:11:22.068Z,99.99
2017-12-13T06:12:30.893Z,99.99
2017-12-13T06:13:39.724Z,99.99
2017-12-13T06:14:48.558Z,99.99
2017-12-13T06:15:57.383Z,99.99
2017-12-13T06:17:06.306Z,99.99
2017-12-13T06:18:15.131Z,99.99
2017-12-13T06:19:23.959Z,99.99
2017-12-13T06:20:33.054Z,99.99
2017-12-13T06:21:41.877Z,99.99
2017-12-13T06:22:50.800Z,99.99
2017-12-13T06:23:59.622Z,99.99
2017-12-13T06:25:08.447Z,99.99
2017-12-13T06:26:17.548Z,99.99
2017-12-13T06:27:26.648Z,99.99
2017-12-13T06:28:35.798Z,99.99
2017-12-13T06:29:44.624Z,99.99
2017-12-13T06:30:53.486Z,99.99
2017-12-13T06:32:02.445Z,99.99
2017-12-13T06:33:11.391Z,99.99
2017-12-13T06:34:20.622Z,99.99
2017-12-13T06:35:29.553Z,99.99
2017-12-13T06:36:38.514Z,99.99
2017-12-13T06:37:47.416Z,99.99
2017-12-13T06:38:56.240Z,99.99
2017-12-13T06:40:05.216Z,99.99
2017-12-13T06:41:14.040Z,99.99
2017-12-13T06:42:22.864Z,99.99
2017-12-13T06:43:31.975Z,99.99
2017-12-13T06:44:40.793Z,99.99
2017-12-13T06:45:49.613Z,99.99
2017-12-13T06:46:58.435Z,99.99
2017-12-13T06:48:07.258Z,99.99
2017-12-13T06:49:16.087Z,99.99
2017-12-13T06:50:25.186Z,99.99
2017-12-13T06:51:34.011Z,99.99
2017-12-13T06:52:42.835Z,99.99
2017-12-13T06:53:51.660Z,99.99
2017-12-13T06:55:00.485Z,99.99
2017-12-13T06:56:09.304Z,99.99
2017-12-13T06:57:18.329Z,99.99
2017-12-13T06:58:27.150Z,99.99
2017-12-13T06:59:36.258Z,99.99
2017-12-13T07:00:45.081Z,99.99
2017-12-13T07:01:53.901Z,99.99
2017-12-13T07:03:03.074Z,99.99
2017-12-13T07:04:11.900Z,99.99
2017-12-13T07:05:20.733Z,99.99
2017-12-13T07:06:29.556Z,99.99
2017-12-13T07:07:38.660Z,99.99
2017-12-13T07:08:47.531Z,99.99
2017-12-13T07:09:56.629Z,99.99
2017-12-13T07:11:05.498Z,99.99
2017-12-13T07:12:14.381Z,99.99
2017-12-13T07:13:23.757Z,99.99
2017-12-13T07:14:33.128Z,99.99
2017-12-13T07:15:41.950Z,99.99
2017-12-13T07:16:50.774Z,99.99
2017-12-13T07:17:59.594Z,99.99
2017-12-13T07:19:08.694Z,99.99
2017-12-13T07:20:17.870Z,99.99
2017-12-13T07:21:26.703Z,99.99
2017-12-13T07:22:35.528Z,99.99
2017-12-13T07:23:44.351Z,99.99
2017-12-13T07:24:53.175Z,99.99
2017-12-13T07:26:02.297Z,99.99
2017-12-13T07:27:11.119Z,99.99
2017-12-13T07:28:19.943Z,99.99
2017-12-13T07:29:28.767Z,99.99
2017-12-13T07:30:37.597Z,99.99
2017-12-13T07:31:46.583Z,99.99
2017-12-13T07:32:55.412Z,99.99
2017-12-13T07:34:04.234Z,99.99
2017-12-13T07:35:13.058Z,99.99
2017-12-13T07:36:21.881Z,99.99
2017-12-13T07:37:31.004Z,99.99
2017-12-13T07:38:39.829Z,99.99
2017-12-13T07:39:48.656Z,99.99
2017-12-13T07:40:57.479Z,99.99
2017-12-13T07:42:06.300Z,99.99
2017-12-13T07:43:15.228Z,99.99
2017-12-13T07:44:24.048Z,99.99
2017-12-13T07:45:32.871Z,99.99
2017-12-13T07:46:41.694Z,99.99
2017-12-13T07:47:50.518Z,99.99
2017-12-13T07:48:59.592Z,99.99
2017-12-13T07:50:08.420Z,99.99
2017-12-13T07:51:17.244Z,99.99
2017-12-13T07:52:26.068Z,99.99
2017-12-13T07:53:34.895Z,99.99
2017-12-13T07:54:43.723Z,99.99
2017-12-13T07:55:52.826Z,99.99
2017-12-13T07:57:01.926Z,99.99
2017-12-13T07:58:10.748Z,99.99
2017-12-13T07:59:19.572Z,99.99
2017-12-13T08:00:28.496Z,99.99
2017-12-13T08:01:37.321Z,99.99
2017-12-13T08:02:46.144Z,99.99
2017-12-13T08:03:54.969Z,99.99
2017-12-13T08:05:03.795Z,99.99
2017-12-13T08:06:12.717Z,99.99
2017-12-13T08:07:21.543Z,99.99
2017-12-13T08:08:30.467Z,99.99
2017-12-13T08:09:39.563Z,99.99
2017-12-13T08:10:48.386Z,99.99
2017-12-13T08:11:57.266Z,99.99
2017-12-13T08:13:06.085Z,99.99
2017-12-13T08:14:14.909Z,99.99
2017-12-13T08:15:23.732Z,99.99
2017-12-13T08:16:32.610Z,99.99
2017-12-13T08:17:41.481Z,99.99
2017-12-13T08:18:50.305Z,99.99
2017-12-13T08:19:59.402Z,99.99
2017-12-13T08:21:08.229Z,99.99
2017-12-13T08:22:17.054Z,99.99
2017-12-13T08:23:25.929Z,99.99
2017-12-13T08:24:34.757Z,99.99
2017-12-13T08:25:43.854Z,99.99
2017-12-13T08:26:52.780Z,99.99
2017-12-13T08:28:01.881Z,99.99
2017-12-13T08:29:10.759Z,99.99
2017-12-13T08:30:19.582Z,99.99
2017-12-13T08:31:28.407Z,99.99
2017-12-13T08:32:37.231Z,99.99
2017-12-13T08:33:46.057Z,99.99
2017-12-13T08:34:55.181Z,99.99
2017-12-13T08:36:04.006Z,99.99
2017-12-13T08:37:12.833Z,99.99
2017-12-13T08:38:21.658Z,99.99
2017-12-13T08:39:30.483Z,99.99
2017-12-13T08:40:39.308Z,99.99
2017-12-13T08:41:48.408Z,99.99
2017-12-13T08:42:57.233Z,99.99
2017-12-13T08:44:06.059Z,99.99
2017-12-13T08:45:15.447Z,99.99
2017-12-13T08:46:24.317Z,99.99
2017-12-13T08:47:33.149Z,99.99
2017-12-13T08:48:42.250Z,99.99
2017-12-13T08:49:51.176Z,99.99
2017-12-13T08:51:00.002Z,99.99
2017-12-13T08:52:08.888Z,99.99
2017-12-13T08:53:17.997Z,99.99
2017-12-13T08:54:27.092Z,99.99
2017-12-13T08:55:35.919Z,99.99
2017-12-13T08:56:44.746Z,99.99
2017-12-13T08:57:53.672Z,99.99
2017-12-13T08:59:02.497Z,99.99
2017-12-13T09:00:11.322Z,99.99
2017-12-13T09:01:20.145Z,99.99
2017-12-13T09:02:28.969Z,99.99
2017-12-13T09:03:37.791Z,99.99
2017-12-13T09:04:46.617Z,99.99
2017-12-13T09:05:55.541Z,99.99
2017-12-13T09:07:04.363Z,99.99
2017-12-13T09:08:13.188Z,99.99
2017-12-13T09:09:22.114Z,99.99
2017-12-13T09:10:30.940Z,99.99
2017-12-13T09:11:40.042Z,99.99
2017-12-13T09:12:48.865Z,99.99
2017-12-13T09:13:57.691Z,99.99
2017-12-13T09:15:06.817Z,99.99
2017-12-13T09:16:15.641Z,99.99
2017-12-13T09:17:24.465Z,99.99
2017-12-13T09:18:33.291Z,99.99
2017-12-13T09:19:42.123Z,99.99
2017-12-13T09:20:51.244Z,99.99
2017-12-13T09:22:00.068Z,99.99
2017-12-13T09:23:08.893Z,99.99
2017-12-13T09:24:17.718Z,99.99
2017-12-13T09:25:26.551Z,99.99
2017-12-13T09:26:35.628Z,99.99
2017-12-13T09:27:44.453Z,99.99
2017-12-13T09:28:53.278Z,99.99
2017-12-13T09:30:02.105Z,99.99
2017-12-13T09:31:10.931Z,99.99
2017-12-13T09:32:19.756Z,99.99
2017-12-13T09:33:28.581Z,99.99
2017-12-13T09:34:37.464Z,99.99
2017-12-13T09:35:46.285Z,99.99
2017-12-13T09:36:55.107Z,99.99
2017-12-13T09:38:03.982Z,99.99
2017-12-13T09:39:12.858Z,99.99
2017-12-13T09:40:21.957Z,99.99
2017-12-13T09:41:30.784Z,99.99
2017-12-13T09:42:39.607Z,99.99
2017-12-13T09:43:48.533Z,99.99
2017-12-13T09:44:57.363Z,99.99
2017-12-13T09:46:06.187Z,99.99
2017-12-13T09:47:15.010Z,99.99
2017-12-13T09:48:23.845Z,99.99
2017-12-13T09:49:32.671Z,99.99
2017-12-13T09:50:41.497Z,99.99
2017-12-13T09:51:50.603Z,99.99
2017-12-13T09:52:59.435Z,99.99
2017-12-13T09:54:08.252Z,99.99
2017-12-13T09:55:17.238Z,99.99
2017-12-13T09:56:26.625Z,99.99
2017-12-13T09:57:35.450Z,99.99
2017-12-13T09:58:44.274Z,99.99
2017-12-13T09:59:53.100Z,99.99
2017-12-13T10:01:02.173Z,99.99
2017-12-13T10:02:10.999Z,99.99
2017-12-13T10:03:19.827Z,99.99
2017-12-13T10:04:28.649Z,99.99
2017-12-13T10:05:37.476Z,99.99
2017-12-13T10:06:46.452Z,99.99
2017-12-13T10:07:55.279Z,99.99
2017-12-13T10:09:04.102Z,99.99
2017-12-13T10:10:12.931Z,99.99
2017-12-13T10:11:21.756Z,99.99
2017-12-13T10:12:30.726Z,99.99
2017-12-13T10:13:39.550Z,99.99
2017-12-13T10:14:48.380Z,99.99
2017-12-13T10:15:57.302Z,99.99
2017-12-13T10:17:06.123Z,99.99
2017-12-13T10:18:15.198Z,99.99
2017-12-13T10:19:24.024Z,99.99
2017-12-13T10:20:32.850Z,99.99
2017-12-13T10:21:41.675Z,99.99
2017-12-13T10:22:50.501Z,99.99
2017-12-13T10:24:00.073Z,99.99
2017-12-13T10:25:08.898Z,99.99
2017-12-13T10:26:17.724Z,99.99
2017-12-13T10:27:26.551Z,99.99
2017-12-13T10:28:35.376Z,99.99
2017-12-13T10:29:44.252Z,99.99
2017-12-13T10:30:53.077Z,99.99
2017-12-13T10:32:01.903Z,99.99
2017-12-13T10:33:10.727Z,99.99
2017-12-13T10:34:19.557Z,99.99
2017-12-13T10:35:28.796Z,99.99
2017-12-13T10:36:37.621Z,99.99
2017-12-13T10:37:46.720Z,99.99
2017-12-13T10:38:55.546Z,99.99
2017-12-13T10:40:04.372Z,99.99
2017-12-13T10:41:13.397Z,99.99
2017-12-13T10:42:22.226Z,99.99
2017-12-13T10:43:31.052Z,99.99
2017-12-13T10:44:39.877Z,99.99
2017-12-13T10:45:48.704Z,99.99
2017-12-13T10:46:57.853Z,99.99
2017-12-13T10:48:06.687Z,99.99
2017-12-13T10:49:15.509Z,99.99
2017-12-13T10:50:24.335Z,99.99
2017-12-13T10:51:33.161Z,99.99
2017-12-13T10:52:42.085Z,99.99
2017-12-13T10:53:50.912Z,99.99
2017-12-13T10:55:00.039Z,99.99
2017-12-13T10:56:09.479Z,99.99
2017-12-13T10:57:18.315Z,99.99
2017-12-13T10:58:27.615Z,99.99
2017-12-13T10:59:36.445Z,99.99
2017-12-13T11:00:45.817Z,99.99
2017-12-13T11:01:54.642Z,99.99
2017-12-13T11:03:03.744Z,99.99
2017-12-13T11:04:12.571Z,99.99
2017-12-13T11:05:21.400Z,99.99
2017-12-13T11:06:30.500Z,99.99
2017-12-13T11:07:39.328Z,99.99
2017-12-13T11:08:48.453Z,99.99
2017-12-13T11:09:57.278Z,99.99
2017-12-13T11:11:06.104Z,99.99
2017-12-13T11:12:14.933Z,99.99
2017-12-13T11:13:23.762Z,99.99
2017-12-13T11:14:32.859Z,99.99
2017-12-13T11:15:41.685Z,99.99
2017-12-13T11:16:50.507Z,99.99
2017-12-13T11:17:59.332Z,99.99
2017-12-13T11:19:08.158Z,99.99
2017-12-13T11:20:17.035Z,99.99
2017-12-13T11:21:25.859Z,99.99
2017-12-13T11:22:34.683Z,99.99
2017-12-13T11:23:43.558Z,99.99
2017-12-13T11:24:52.385Z,99.99
2017-12-13T11:26:01.470Z,99.99
2017-12-13T11:27:10.299Z,99.99
2017-12-13T11:28:19.122Z,99.99
2017-12-13T11:29:27.947Z,99.99
2017-12-13T11:30:36.775Z,99.99
2017-12-13T11:31:45.600Z,99.99
2017-12-13T11:32:54.425Z,99.99
2017-12-13T11:34:03.254Z,99.99
2017-12-13T11:35:12.353Z,99.99
2017-12-13T11:36:21.180Z,99.99
2017-12-13T11:37:30.001Z,99.99
2017-12-13T11:38:39.103Z,99.99
2017-12-13T11:39:47.928Z,99.99
2017-12-13T11:40:56.754Z,99.99
2017-12-13T11:42:05.916Z,99.99
2017-12-13T11:43:14.991Z,99.99
2017-12-13T11:44:23.816Z,99.99
2017-12-13T11:45:32.640Z,99.99
2017-12-13T11:46:41.464Z,99.99
2017-12-13T11:47:50.287Z,99.99
2017-12-13T11:48:59.213Z,99.99
2017-12-13T11:50:08.044Z,99.99
2017-12-13T11:51:16.863Z,99.99
2017-12-13T11:52:25.687Z,99.99
2017-12-13T11:53:34.511Z,99.99
2017-12-13T11:54:43.753Z,99.99
2017-12-13T11:55:52.581Z,99.99
2017-12-13T11:57:01.399Z,99.99
2017-12-13T11:58:10.225Z,99.99
2017-12-13T11:59:19.048Z,99.99
2017-12-13T12:00:28.022Z,99.99
2017-12-13T12:01:37.121Z,99.99
2017-12-13T12:02:45.946Z,99.99
2017-12-13T12:03:54.771Z,99.99
2017-12-13T12:05:03.596Z,99.99
2017-12-13T12:06:12.419Z,99.99
2017-12-13T12:07:21.246Z,99.99
2017-12-13T12:08:30.573Z,99.99
2017-12-13T12:09:39.433Z,99.99
2017-12-13T12:10:48.311Z,99.99
2017-12-13T12:11:57.916Z,99.99
2017-12-13T12:13:06.971Z,99.99
2017-12-13T12:14:15.898Z,99.99
2017-12-13T12:15:25.483Z,99.99
2017-12-13T12:16:34.408Z,99.99
2017-12-13T12:17:43.672Z,99.99
2017-12-13T12:18:53.057Z,99.99
2017-12-13T12:20:02.324Z,99.99
2017-12-13T12:21:11.223Z,99.9
2017-12-13T12:22:20.084Z,99.43
2017-12-13T12:23:28.953Z,98.39
2017-12-13T12:24:38.027Z,98.68
2017-12-13T12:25:47.611Z,98.49
2017-12-13T12:26:56.523Z,98.58
2017-12-13T12:28:05.681Z,98.68
2017-12-13T12:29:14.614Z,98.68
2017-12-13T12:30:23.521Z,98.68
2017-12-13T12:31:32.384Z,98.86
2017-12-13T12:32:41.417Z,98.3
2017-12-13T12:33:50.257Z,98.11
2017-12-13T12:34:59.332Z,97.73
2017-12-13T12:36:08.163Z,97.92
2017-12-13T12:37:17.172Z,98.11
2017-12-13T12:38:26.333Z,98.11
2017-12-13T12:39:35.416Z,97.25
2017-12-13T12:40:44.562Z,98.01
2017-12-13T12:41:53.426Z,97.16
2017-12-13T12:43:03.078Z,97.16
2017-12-13T12:44:11.906Z,97.35
2017-12-13T12:45:20.758Z,97.16
2017-12-13T12:46:29.765Z,97.06
2017-12-13T12:47:38.807Z,96.21
2017-12-13T12:48:47.631Z,96.4
2017-12-13T12:49:56.458Z,95.07
2017-12-13T12:51:06.164Z,95.45
2017-12-13T12:52:15.106Z,95.07
2017-12-13T12:53:24.190Z,95.36
2017-12-13T12:54:33.275Z,94.7
2017-12-13T12:55:42.099Z,95.17
2017-12-13T12:56:50.930Z,94.42
2017-12-13T12:57:59.805Z,94.13
2017-12-13T12:59:08.629Z,93.84
2017-12-13T13:00:17.452Z,93.08
2017-12-13T13:01:26.278Z,92.71
2017-12-13T13:02:35.101Z,92.9
2017-12-13T13:03:43.978Z,92.43
2017-12-13T13:04:53.158Z,92.05
2017-12-13T13:06:02.080Z,92.14
2017-12-13T13:07:10.907Z,91.86
2017-12-13T13:08:19.731Z,92.33
2017-12-13T13:09:28.976Z,92.24
2017-12-13T13:10:37.794Z,92.05
2017-12-13T13:11:46.639Z,91.67
2017-12-13T13:12:55.493Z,91.48
2017-12-13T13:14:04.399Z,91.48
2017-12-13T13:15:13.228Z,91.48
2017-12-13T13:16:22.104Z,91.38
2017-12-13T13:17:30.928Z,91.1
2017-12-13T13:18:39.752Z,91.48
2017-12-13T13:19:48.577Z,91.38
2017-12-13T13:20:57.451Z,91
2017-12-13T13:22:06.275Z,91.19
2017-12-13T13:23:15.102Z,91
2017-12-13T13:24:24.204Z,91.19
2017-12-13T13:25:33.033Z,90.63
2017-12-13T13:26:42.181Z,90.63
2017-12-13T13:27:51.006Z,90.06
2017-12-13T13:28:59.832Z,90.25
2017-12-13T13:30:08.655Z,89.87
2017-12-13T13:31:17.479Z,89.2
2017-12-13T13:32:26.354Z,89.01
2017-12-13T13:33:35.187Z,89.01
2017-12-13T13:34:44.027Z,88.26
2017-12-13T13:35:52.852Z,88.45
2017-12-13T13:37:01.951Z,88.45
2017-12-13T13:38:10.925Z,88.54
2017-12-13T13:39:19.750Z,88.07
2017-12-13T13:40:28.573Z,87.69
2017-12-13T13:41:37.398Z,87.88
2017-12-13T13:42:46.221Z,87.12
2017-12-13T13:43:55.300Z,87.5
2017-12-13T13:45:04.125Z,87.31
2017-12-13T13:46:12.948Z,87.21
2017-12-13T13:47:21.776Z,86.74
2017-12-13T13:48:30.877Z,86.93
2017-12-13T13:49:39.709Z,86.65
2017-12-13T13:50:48.548Z,87.02
2017-12-13T13:51:57.379Z,86.46
2017-12-13T13:53:06.204Z,86.18
2017-12-13T13:54:15.027Z,85.8
2017-12-13T13:55:24.004Z,85.99
2017-12-13T13:56:32.827Z,85.7
2017-12-13T13:57:41.651Z,85.32
2017-12-13T13:58:50.478Z,85.13
2017-12-13T13:59:59.301Z,84.66
2017-12-13T14:01:08.454Z,84.56
2017-12-13T14:02:17.283Z,84.85
2017-12-13T14:03:26.380Z,84.56
2017-12-13T14:04:35.203Z,84.66
2017-12-13T14:05:44.026Z,84.28
2017-12-13T14:06:52.949Z,83.71
2017-12-13T14:08:01.777Z,83.62
2017-12-13T14:09:10.888Z,83.62
2017-12-13T14:10:19.990Z,83.43
2017-12-13T14:11:28.816Z,82.48
2017-12-13T14:12:37.740Z,82.57
2017-12-13T14:13:46.564Z,82.48
2017-12-13T14:14:55.390Z,82.01
2017-12-13T14:16:04.215Z,81.63
2017-12-13T14:17:13.040Z,80.49
2017-12-13T14:18:22.114Z,80.3
2017-12-13T14:19:30.939Z,79.74
2017-12-13T14:20:39.764Z,79.55
2017-12-13T14:21:48.597Z,79.55
2017-12-13T14:22:57.425Z,78.69
2017-12-13T14:24:06.306Z,78.79
2017-12-13T14:25:15.128Z,78.88
2017-12-13T14:26:23.951Z,78.79
2017-12-13T14:27:32.778Z,78.59
2017-12-13T14:28:41.601Z,79.07
2017-12-13T14:29:50.475Z,79.17
2017-12-13T14:30:59.298Z,78.59
2017-12-13T14:32:08.398Z,78.79
2017-12-13T14:33:17.221Z,78.41
2017-12-13T14:34:26.044Z,78.69
2017-12-13T14:35:35.019Z,78.79
2017-12-13T14:36:43.840Z,78.88
2017-12-13T14:37:52.663Z,78.98
2017-12-13T14:39:01.487Z,78.5
2017-12-13T14:40:10.310Z,78.69
2017-12-13T14:41:19.184Z,78.98
2017-12-13T14:42:28.006Z,78.69
2017-12-13T14:43:36.831Z,78.46
2017-12-13T14:44:45.655Z,78.31
2017-12-13T14:45:54.479Z,78.5
2017-12-13T14:47:03.303Z,78.22
2017-12-13T14:48:12.125Z,78.31
2017-12-13T14:49:20.952Z,77.75